sensor_id;sensor_type;location;lat;lon;timestamp;temperature;humidity
4411;DHT22;2218;51.408;7.208;2023-08-01T00:01:30;21.30;61.30
4411;DHT22;2218;51.408;7.208;2023-08-01T00:03:57;21.30;61.30
4411;DHT22;2218;51.408;7.208;2023-08-01T00:06:24;21.20;61.10
4411;DHT22;2218;51.408;7.208;2023-08-01T00:08:51;21.30;61.30
4411;DHT22;2218;51.408;7.208;2023-08-01T00:11:18;21.30;61.30
4411;DHT22;2218;51.408;7.208;2023-08-01T00:13:44;21.30;61.30
4411;DHT22;2218;51.408;7.208;2023-08-01T00:16:11;21.30;61.30
4411;DHT22;2218;51.408;7.208;2023-08-01T00:18:40;21.30;61.30
4411;DHT22;2218;51.408;7.208;2023-08-01T00:21:07;21.20;61.20
4411;DHT22;2218;51.408;7.208;2023-08-01T00:23:35;21.20;61.20
4411;DHT22;2218;51.408;7.208;2023-08-01T00:26:02;21.20;61.30
4411;DHT22;2218;51.408;7.208;2023-08-01T00:28:29;21.20;61.30
4411;DHT22;2218;51.408;7.208;2023-08-01T00:31:05;21.20;61.30
4411;DHT22;2218;51.408;7.208;2023-08-01T00:33:32;21.20;61.30
4411;DHT22;2218;51.408;7.208;2023-08-01T00:36:01;21.30;61.30
4411;DHT22;2218;51.408;7.208;2023-08-01T00:38:28;21.30;61.30
4411;DHT22;2218;51.408;7.208;2023-08-01T00:40:55;21.30;61.30
4411;DHT22;2218;51.408;7.208;2023-08-01T00:43:22;21.30;61.30
4411;DHT22;2218;51.408;7.208;2023-08-01T00:45:49;21.20;61.20
4411;DHT22;2218;51.408;7.208;2023-08-01T00:48:16;21.20;61.20
4411;DHT22;2218;51.408;7.208;2023-08-01T00:50:44;21.20;61.20
4411;DHT22;2218;51.408;7.208;2023-08-01T00:53:13;21.30;61.30
4411;DHT22;2218;51.408;7.208;2023-08-01T00:55:40;21.30;61.30
4411;DHT22;2218;51.408;7.208;2023-08-01T00:58:07;21.20;61.20
4411;DHT22;2218;51.408;7.208;2023-08-01T01:00:34;21.20;61.30
4411;DHT22;2218;51.408;7.208;2023-08-01T01:03:01;21.20;61.20
4411;DHT22;2218;51.408;7.208;2023-08-01T01:05:34;21.20;61.20
4411;DHT22;2218;51.408;7.208;2023-08-01T01:08:03;21.20;61.20
4411;DHT22;2218;51.408;7.208;2023-08-01T01:10:32;21.20;61.20
4411;DHT22;2218;51.408;7.208;2023-08-01T01:12:59;21.20;61.20
4411;DHT22;2218;51.408;7.208;2023-08-01T01:15:26;21.20;61.20
4411;DHT22;2218;51.408;7.208;2023-08-01T01:17:53;21.20;61.20
4411;DHT22;2218;51.408;7.208;2023-08-01T01:20:23;21.20;61.20
4411;DHT22;2218;51.408;7.208;2023-08-01T01:22:52;21.20;61.20
4411;DHT22;2218;51.408;7.208;2023-08-01T01:25:22;21.20;61.10
4411;DHT22;2218;51.408;7.208;2023-08-01T01:27:51;21.20;61.20
4411;DHT22;2218;51.408;7.208;2023-08-01T01:30:21;21.20;61.20
4411;DHT22;2218;51.408;7.208;2023-08-01T01:32:49;21.20;61.20
4411;DHT22;2218;51.408;7.208;2023-08-01T01:35:16;21.20;61.20
4411;DHT22;2218;51.408;7.208;2023-08-01T01:37:43;21.20;61.20
4411;DHT22;2218;51.408;7.208;2023-08-01T01:40:11;21.20;61.20
4411;DHT22;2218;51.408;7.208;2023-08-01T01:42:38;21.20;61.20
4411;DHT22;2218;51.408;7.208;2023-08-01T01:45:06;21.20;61.20
4411;DHT22;2218;51.408;7.208;2023-08-01T01:47:33;21.20;61.10
4411;DHT22;2218;51.408;7.208;2023-08-01T01:50:00;21.20;61.90
4411;DHT22;2218;51.408;7.208;2023-08-01T01:52:27;21.20;61.20
4411;DHT22;2218;51.408;7.208;2023-08-01T01:54:54;21.20;61.20
4411;DHT22;2218;51.408;7.208;2023-08-01T01:57:22;21.20;61.10
4411;DHT22;2218;51.408;7.208;2023-08-01T01:59:49;21.20;61.10
4411;DHT22;2218;51.408;7.208;2023-08-01T02:02:16;21.20;61.20
4411;DHT22;2218;51.408;7.208;2023-08-01T02:04:46;21.20;61.10
4411;DHT22;2218;51.408;7.208;2023-08-01T02:07:14;21.20;61.10
4411;DHT22;2218;51.408;7.208;2023-08-01T02:09:41;21.20;61.10
4411;DHT22;2218;51.408;7.208;2023-08-01T02:12:09;21.20;61.10
4411;DHT22;2218;51.408;7.208;2023-08-01T02:14:40;21.20;61.20
4411;DHT22;2218;51.408;7.208;2023-08-01T02:17:08;21.20;61.10
4411;DHT22;2218;51.408;7.208;2023-08-01T02:19:35;21.20;61.10
4411;DHT22;2218;51.408;7.208;2023-08-01T02:22:02;21.20;61.10
4411;DHT22;2218;51.408;7.208;2023-08-01T02:24:29;21.20;61.10
4411;DHT22;2218;51.408;7.208;2023-08-01T02:26:56;21.20;61.10
4411;DHT22;2218;51.408;7.208;2023-08-01T02:29:23;21.20;61.10
4411;DHT22;2218;51.408;7.208;2023-08-01T02:31:51;21.20;61.10
4411;DHT22;2218;51.408;7.208;2023-08-01T02:34:18;21.20;61.10
4411;DHT22;2218;51.408;7.208;2023-08-01T02:36:45;21.20;61.20
4411;DHT22;2218;51.408;7.208;2023-08-01T02:39:12;21.20;61.10
4411;DHT22;2218;51.408;7.208;2023-08-01T02:41:39;21.20;61.10
4411;DHT22;2218;51.408;7.208;2023-08-01T02:44:06;21.20;61.10
4411;DHT22;2218;51.408;7.208;2023-08-01T02:46:32;21.20;61.10
4411;DHT22;2218;51.408;7.208;2023-08-01T02:49:01;21.20;61.10
4411;DHT22;2218;51.408;7.208;2023-08-01T02:51:28;21.20;61.10
4411;DHT22;2218;51.408;7.208;2023-08-01T02:53:55;21.20;61.10
4411;DHT22;2218;51.408;7.208;2023-08-01T02:56:22;21.10;61.10
4411;DHT22;2218;51.408;7.208;2023-08-01T02:58:49;21.20;61.20
4411;DHT22;2218;51.408;7.208;2023-08-01T03:01:17;21.10;61.00
4411;DHT22;2218;51.408;7.208;2023-08-01T03:03:44;21.10;61.00
4411;DHT22;2218;51.408;7.208;2023-08-01T03:06:12;21.20;61.10
4411;DHT22;2218;51.408;7.208;2023-08-01T03:08:39;21.10;61.00
4411;DHT22;2218;51.408;7.208;2023-08-01T03:11:06;21.20;61.10
4411;DHT22;2218;51.408;7.208;2023-08-01T03:13:33;21.20;61.10
4411;DHT22;2218;51.408;7.208;2023-08-01T03:16:01;21.10;61.00
4411;DHT22;2218;51.408;7.208;2023-08-01T03:18:29;21.10;61.00
4411;DHT22;2218;51.408;7.208;2023-08-01T03:20:57;21.10;61.00
4411;DHT22;2218;51.408;7.208;2023-08-01T03:23:25;21.10;61.00
4411;DHT22;2218;51.408;7.208;2023-08-01T03:25:52;21.10;61.00
4411;DHT22;2218;51.408;7.208;2023-08-01T03:28:19;21.10;61.00
4411;DHT22;2218;51.408;7.208;2023-08-01T03:30:46;21.10;61.00
4411;DHT22;2218;51.408;7.208;2023-08-01T03:33:15;21.10;61.00
4411;DHT22;2218;51.408;7.208;2023-08-01T03:35:42;21.10;61.00
4411;DHT22;2218;51.408;7.208;2023-08-01T03:38:09;21.10;61.00
4411;DHT22;2218;51.408;7.208;2023-08-01T03:40:37;21.10;61.00
4411;DHT22;2218;51.408;7.208;2023-08-01T03:43:04;21.10;61.00
4411;DHT22;2218;51.408;7.208;2023-08-01T03:45:32;21.10;61.00
4411;DHT22;2218;51.408;7.208;2023-08-01T03:47:59;21.10;61.00
4411;DHT22;2218;51.408;7.208;2023-08-01T03:50:26;21.10;61.00
4411;DHT22;2218;51.408;7.208;2023-08-01T03:52:53;21.10;61.00
4411;DHT22;2218;51.408;7.208;2023-08-01T03:55:20;21.10;61.00
4411;DHT22;2218;51.408;7.208;2023-08-01T03:57:48;21.10;61.00
4411;DHT22;2218;51.408;7.208;2023-08-01T04:00:15;21.10;61.00
4411;DHT22;2218;51.408;7.208;2023-08-01T04:02:44;21.10;61.00
4411;DHT22;2218;51.408;7.208;2023-08-01T04:05:11;21.10;61.00
4411;DHT22;2218;51.408;7.208;2023-08-01T04:07:38;21.10;60.90
4411;DHT22;2218;51.408;7.208;2023-08-01T04:10:06;21.10;61.00
4411;DHT22;2218;51.408;7.208;2023-08-01T04:12:34;21.10;61.00
4411;DHT22;2218;51.408;7.208;2023-08-01T04:15:03;21.10;61.00
4411;DHT22;2218;51.408;7.208;2023-08-01T04:17:31;21.10;60.90
4411;DHT22;2218;51.408;7.208;2023-08-01T04:19:58;21.10;60.90
4411;DHT22;2218;51.408;7.208;2023-08-01T04:22:24;21.10;60.90
4411;DHT22;2218;51.408;7.208;2023-08-01T04:24:51;21.10;60.90
4411;DHT22;2218;51.408;7.208;2023-08-01T04:27:18;21.10;60.90
4411;DHT22;2218;51.408;7.208;2023-08-01T04:29:45;21.10;60.90
4411;DHT22;2218;51.408;7.208;2023-08-01T04:32:13;21.10;60.90
4411;DHT22;2218;51.408;7.208;2023-08-01T04:34:41;21.10;60.90
4411;DHT22;2218;51.408;7.208;2023-08-01T04:37:08;21.10;60.90
4411;DHT22;2218;51.408;7.208;2023-08-01T04:39:36;21.10;60.90
4411;DHT22;2218;51.408;7.208;2023-08-01T04:42:03;21.10;60.90
4411;DHT22;2218;51.408;7.208;2023-08-01T04:44:30;21.10;60.90
4411;DHT22;2218;51.408;7.208;2023-08-01T04:46:57;21.10;60.90
4411;DHT22;2218;51.408;7.208;2023-08-01T04:49:26;21.10;60.90
4411;DHT22;2218;51.408;7.208;2023-08-01T04:51:53;21.10;60.90
4411;DHT22;2218;51.408;7.208;2023-08-01T04:54:20;21.10;60.90
4411;DHT22;2218;51.408;7.208;2023-08-01T04:56:47;21.10;60.90
4411;DHT22;2218;51.408;7.208;2023-08-01T04:59:14;21.10;60.80
4411;DHT22;2218;51.408;7.208;2023-08-01T05:01:41;21.10;60.80
4411;DHT22;2218;51.408;7.208;2023-08-01T05:04:08;21.10;60.80
4411;DHT22;2218;51.408;7.208;2023-08-01T05:06:37;21.10;60.80
4411;DHT22;2218;51.408;7.208;2023-08-01T05:09:05;21.10;60.80
4411;DHT22;2218;51.408;7.208;2023-08-01T05:11:32;21.10;60.80
4411;DHT22;2218;51.408;7.208;2023-08-01T05:13:59;21.10;60.80
4411;DHT22;2218;51.408;7.208;2023-08-01T05:16:26;21.10;60.80
4411;DHT22;2218;51.408;7.208;2023-08-01T05:18:53;21.10;60.70
4411;DHT22;2218;51.408;7.208;2023-08-01T05:21:20;21.10;60.70
4411;DHT22;2218;51.408;7.208;2023-08-01T05:23:48;21.10;60.70
4411;DHT22;2218;51.408;7.208;2023-08-01T05:26:15;21.10;60.80
4411;DHT22;2218;51.408;7.208;2023-08-01T05:28:42;21.10;60.80
4411;DHT22;2218;51.408;7.208;2023-08-01T05:31:09;21.10;61.40
4411;DHT22;2218;51.408;7.208;2023-08-01T05:33:36;21.00;60.70
4411;DHT22;2218;51.408;7.208;2023-08-01T05:36:03;21.00;60.70
4411;DHT22;2218;51.408;7.208;2023-08-01T05:38:30;21.00;60.70
4411;DHT22;2218;51.408;7.208;2023-08-01T05:40:58;21.10;60.80
4411;DHT22;2218;51.408;7.208;2023-08-01T05:43:26;21.00;60.70
4411;DHT22;2218;51.408;7.208;2023-08-01T05:45:52;21.10;60.80
4411;DHT22;2218;51.408;7.208;2023-08-01T05:48:21;21.00;60.70
4411;DHT22;2218;51.408;7.208;2023-08-01T05:50:48;21.00;60.70
4411;DHT22;2218;51.408;7.208;2023-08-01T05:53:14;21.10;60.80
4411;DHT22;2218;51.408;7.208;2023-08-01T05:55:41;21.00;60.60
4411;DHT22;2218;51.408;7.208;2023-08-01T05:58:10;21.10;60.80
4411;DHT22;2218;51.408;7.208;2023-08-01T06:00:37;21.00;60.70
4411;DHT22;2218;51.408;7.208;2023-08-01T06:03:04;21.00;60.70
4411;DHT22;2218;51.408;7.208;2023-08-01T06:05:30;21.00;60.70
4411;DHT22;2218;51.408;7.208;2023-08-01T06:07:58;21.00;60.70
4411;DHT22;2218;51.408;7.208;2023-08-01T06:10:24;21.00;60.70
4411;DHT22;2218;51.408;7.208;2023-08-01T06:12:51;21.00;60.70
4411;DHT22;2218;51.408;7.208;2023-08-01T06:15:20;21.00;60.70
4411;DHT22;2218;51.408;7.208;2023-08-01T06:17:47;21.00;60.70
4411;DHT22;2218;51.408;7.208;2023-08-01T06:20:14;21.00;60.70
4411;DHT22;2218;51.408;7.208;2023-08-01T06:22:41;21.00;60.70
4411;DHT22;2218;51.408;7.208;2023-08-01T06:25:09;21.00;60.70
4411;DHT22;2218;51.408;7.208;2023-08-01T06:27:36;21.00;60.70
4411;DHT22;2218;51.408;7.208;2023-08-01T06:30:03;21.00;60.70
4411;DHT22;2218;51.408;7.208;2023-08-01T06:32:33;21.00;60.70
4411;DHT22;2218;51.408;7.208;2023-08-01T06:34:59;21.00;60.60
4411;DHT22;2218;51.408;7.208;2023-08-01T06:37:26;21.00;60.70
4411;DHT22;2218;51.408;7.208;2023-08-01T06:39:54;21.00;60.60
4411;DHT22;2218;51.408;7.208;2023-08-01T06:42:21;21.00;60.60
4411;DHT22;2218;51.408;7.208;2023-08-01T06:44:48;21.00;60.70
4411;DHT22;2218;51.408;7.208;2023-08-01T06:47:15;21.00;60.70
4411;DHT22;2218;51.408;7.208;2023-08-01T06:49:43;21.00;60.70
4411;DHT22;2218;51.408;7.208;2023-08-01T06:52:10;21.00;60.70
4411;DHT22;2218;51.408;7.208;2023-08-01T06:54:37;21.00;60.70
4411;DHT22;2218;51.408;7.208;2023-08-01T06:57:06;21.00;60.80
4411;DHT22;2218;51.408;7.208;2023-08-01T06:59:33;21.00;60.70
4411;DHT22;2218;51.408;7.208;2023-08-01T07:02:00;21.00;60.70
4411;DHT22;2218;51.408;7.208;2023-08-01T07:04:27;21.00;60.80
4411;DHT22;2218;51.408;7.208;2023-08-01T07:06:55;21.00;61.30
4411;DHT22;2218;51.408;7.208;2023-08-01T07:09:22;21.00;60.70
4411;DHT22;2218;51.408;7.208;2023-08-01T07:11:49;21.00;60.70
4411;DHT22;2218;51.408;7.208;2023-08-01T07:14:16;21.00;60.70
4411;DHT22;2218;51.408;7.208;2023-08-01T07:16:43;21.00;60.70
4411;DHT22;2218;51.408;7.208;2023-08-01T07:19:10;21.00;60.70
4411;DHT22;2218;51.408;7.208;2023-08-01T07:21:37;21.00;60.70
4411;DHT22;2218;51.408;7.208;2023-08-01T07:24:05;21.00;60.70
4411;DHT22;2218;51.408;7.208;2023-08-01T07:26:32;21.00;60.70
4411;DHT22;2218;51.408;7.208;2023-08-01T07:28:59;21.00;60.70
4411;DHT22;2218;51.408;7.208;2023-08-01T07:31:26;21.00;60.70
4411;DHT22;2218;51.408;7.208;2023-08-01T07:33:53;21.00;60.70
4411;DHT22;2218;51.408;7.208;2023-08-01T07:36:20;21.00;60.60
4411;DHT22;2218;51.408;7.208;2023-08-01T07:38:47;21.00;60.70
4411;DHT22;2218;51.408;7.208;2023-08-01T07:41:16;21.00;60.70
4411;DHT22;2218;51.408;7.208;2023-08-01T07:43:42;21.00;60.70
4411;DHT22;2218;51.408;7.208;2023-08-01T07:46:09;21.00;60.60
4411;DHT22;2218;51.408;7.208;2023-08-01T07:48:37;21.00;60.70
4411;DHT22;2218;51.408;7.208;2023-08-01T07:51:04;21.00;60.70
4411;DHT22;2218;51.408;7.208;2023-08-01T07:53:33;21.00;60.70
4411;DHT22;2218;51.408;7.208;2023-08-01T07:56:00;21.00;60.60
4411;DHT22;2218;51.408;7.208;2023-08-01T07:58:29;21.10;60.70
4411;DHT22;2218;51.408;7.208;2023-08-01T08:00:56;21.00;60.60
4411;DHT22;2218;51.408;7.208;2023-08-01T08:03:23;21.00;60.70
4411;DHT22;2218;51.408;7.208;2023-08-01T08:05:50;21.00;60.60
4411;DHT22;2218;51.408;7.208;2023-08-01T08:08:17;21.00;60.60
4411;DHT22;2218;51.408;7.208;2023-08-01T08:10:44;21.00;60.60
4411;DHT22;2218;51.408;7.208;2023-08-01T08:13:11;21.00;60.60
4411;DHT22;2218;51.408;7.208;2023-08-01T08:15:39;21.10;60.80
4411;DHT22;2218;51.408;7.208;2023-08-01T08:18:06;21.00;60.60
4411;DHT22;2218;51.408;7.208;2023-08-01T08:20:42;21.10;60.70
4411;DHT22;2218;51.408;7.208;2023-08-01T08:23:11;21.10;60.70
4411;DHT22;2218;51.408;7.208;2023-08-01T08:25:39;21.10;60.70
4411;DHT22;2218;51.408;7.208;2023-08-01T08:28:07;21.10;60.60
4411;DHT22;2218;51.408;7.208;2023-08-01T08:30:35;21.10;60.60
4411;DHT22;2218;51.408;7.208;2023-08-01T08:33:04;21.10;60.60
4411;DHT22;2218;51.408;7.208;2023-08-01T08:35:32;21.10;60.60
4411;DHT22;2218;51.408;7.208;2023-08-01T08:38:01;21.10;60.60
4411;DHT22;2218;51.408;7.208;2023-08-01T08:40:29;21.10;60.60
4411;DHT22;2218;51.408;7.208;2023-08-01T08:43:01;21.10;60.60
4411;DHT22;2218;51.408;7.208;2023-08-01T08:45:32;21.10;60.60
4411;DHT22;2218;51.408;7.208;2023-08-01T08:48:06;21.10;60.60
4411;DHT22;2218;51.408;7.208;2023-08-01T08:50:39;21.10;60.50
4411;DHT22;2218;51.408;7.208;2023-08-01T08:53:08;21.10;60.50
4411;DHT22;2218;51.408;7.208;2023-08-01T08:55:39;21.10;60.60
4411;DHT22;2218;51.408;7.208;2023-08-01T08:58:07;21.10;60.50
4411;DHT22;2218;51.408;7.208;2023-08-01T09:00:35;21.10;60.50
4411;DHT22;2218;51.408;7.208;2023-08-01T09:03:04;21.10;60.60
4411;DHT22;2218;51.408;7.208;2023-08-01T09:05:38;21.10;60.60
4411;DHT22;2218;51.408;7.208;2023-08-01T09:08:16;21.20;60.60
4411;DHT22;2218;51.408;7.208;2023-08-01T09:10:46;21.20;60.60
4411;DHT22;2218;51.408;7.208;2023-08-01T09:13:14;21.10;60.50
4411;DHT22;2218;51.408;7.208;2023-08-01T09:15:41;21.20;60.60
4411;DHT22;2218;51.408;7.208;2023-08-01T09:18:10;21.20;60.60
4411;DHT22;2218;51.408;7.208;2023-08-01T09:20:42;21.20;60.60
4411;DHT22;2218;51.408;7.208;2023-08-01T09:23:10;21.20;60.60
4411;DHT22;2218;51.408;7.208;2023-08-01T09:25:37;21.20;60.60
4411;DHT22;2218;51.408;7.208;2023-08-01T09:28:15;21.20;60.60
4411;DHT22;2218;51.408;7.208;2023-08-01T09:30:47;21.20;60.60
4411;DHT22;2218;51.408;7.208;2023-08-01T09:33:17;21.20;60.60
4411;DHT22;2218;51.408;7.208;2023-08-01T09:35:44;21.20;60.50
4411;DHT22;2218;51.408;7.208;2023-08-01T09:38:13;21.20;60.60
4411;DHT22;2218;51.408;7.208;2023-08-01T09:40:42;21.20;60.50
4411;DHT22;2218;51.408;7.208;2023-08-01T09:43:10;21.20;60.50
4411;DHT22;2218;51.408;7.208;2023-08-01T09:45:48;21.20;60.40
4411;DHT22;2218;51.408;7.208;2023-08-01T09:48:23;21.20;60.40
4411;DHT22;2218;51.408;7.208;2023-08-01T09:50:51;21.20;60.40
4411;DHT22;2218;51.408;7.208;2023-08-01T09:53:18;21.20;60.40
4411;DHT22;2218;51.408;7.208;2023-08-01T09:55:46;21.30;60.50
4411;DHT22;2218;51.408;7.208;2023-08-01T09:58:17;21.30;60.40
4411;DHT22;2218;51.408;7.208;2023-08-01T10:00:49;21.30;60.40
4411;DHT22;2218;51.408;7.208;2023-08-01T10:03:16;21.30;60.40
4411;DHT22;2218;51.408;7.208;2023-08-01T10:05:45;21.30;60.40
4411;DHT22;2218;51.408;7.208;2023-08-01T10:08:13;21.30;60.30
4411;DHT22;2218;51.408;7.208;2023-08-01T10:10:42;21.30;60.30
4411;DHT22;2218;51.408;7.208;2023-08-01T10:13:12;21.30;60.30
4411;DHT22;2218;51.408;7.208;2023-08-01T10:15:40;21.30;60.20
4411;DHT22;2218;51.408;7.208;2023-08-01T10:18:08;21.30;60.90
4411;DHT22;2218;51.408;7.208;2023-08-01T10:20:36;21.30;60.20
4411;DHT22;2218;51.408;7.208;2023-08-01T10:23:06;21.30;60.30
4411;DHT22;2218;51.408;7.208;2023-08-01T10:25:35;21.30;60.30
4411;DHT22;2218;51.408;7.208;2023-08-01T10:28:05;21.30;60.20
4411;DHT22;2218;51.408;7.208;2023-08-01T10:30:32;21.30;60.20
4411;DHT22;2218;51.408;7.208;2023-08-01T10:33:00;21.30;60.20
4411;DHT22;2218;51.408;7.208;2023-08-01T10:35:34;21.30;60.20
4411;DHT22;2218;51.408;7.208;2023-08-01T10:38:09;21.30;60.30
4411;DHT22;2218;51.408;7.208;2023-08-01T10:40:38;21.30;60.20
4411;DHT22;2218;51.408;7.208;2023-08-01T10:43:19;21.30;60.30
4411;DHT22;2218;51.408;7.208;2023-08-01T10:45:47;21.30;60.30
4411;DHT22;2218;51.408;7.208;2023-08-01T10:48:14;21.30;60.30
4411;DHT22;2218;51.408;7.208;2023-08-01T10:50:41;21.30;60.20
4411;DHT22;2218;51.408;7.208;2023-08-01T10:53:10;21.30;60.30
4411;DHT22;2218;51.408;7.208;2023-08-01T10:55:45;21.30;60.30
4411;DHT22;2218;51.408;7.208;2023-08-01T10:58:12;21.30;60.30
4411;DHT22;2218;51.408;7.208;2023-08-01T11:00:41;21.30;60.90
4411;DHT22;2218;51.408;7.208;2023-08-01T11:03:09;21.30;60.30
4411;DHT22;2218;51.408;7.208;2023-08-01T11:05:36;21.30;60.20
4411;DHT22;2218;51.408;7.208;2023-08-01T11:08:03;21.30;60.20
4411;DHT22;2218;51.408;7.208;2023-08-01T11:10:33;21.30;60.20
4411;DHT22;2218;51.408;7.208;2023-08-01T11:13:00;21.30;60.20
4411;DHT22;2218;51.408;7.208;2023-08-01T11:15:27;21.30;60.30
4411;DHT22;2218;51.408;7.208;2023-08-01T11:17:55;21.30;60.30
4411;DHT22;2218;51.408;7.208;2023-08-01T11:20:24;21.40;60.40
4411;DHT22;2218;51.408;7.208;2023-08-01T11:22:56;21.30;60.30
4411;DHT22;2218;51.408;7.208;2023-08-01T11:25:38;21.30;60.30
4411;DHT22;2218;51.408;7.208;2023-08-01T11:28:08;21.30;60.30
4411;DHT22;2218;51.408;7.208;2023-08-01T11:30:37;21.30;60.30
4411;DHT22;2218;51.408;7.208;2023-08-01T11:33:13;21.30;60.30
4411;DHT22;2218;51.408;7.208;2023-08-01T11:35:41;21.30;60.30
4411;DHT22;2218;51.408;7.208;2023-08-01T11:38:09;21.30;60.30
4411;DHT22;2218;51.408;7.208;2023-08-01T11:40:38;21.30;60.30
4411;DHT22;2218;51.408;7.208;2023-08-01T11:43:06;21.30;60.30
4411;DHT22;2218;51.408;7.208;2023-08-01T11:45:33;21.30;60.30
4411;DHT22;2218;51.408;7.208;2023-08-01T11:48:01;21.30;60.30
4411;DHT22;2218;51.408;7.208;2023-08-01T11:50:28;21.30;60.30
4411;DHT22;2218;51.408;7.208;2023-08-01T11:52:55;21.30;60.40
4411;DHT22;2218;51.408;7.208;2023-08-01T11:55:25;21.30;61.00
4411;DHT22;2218;51.408;7.208;2023-08-01T11:57:56;21.30;60.40
4411;DHT22;2218;51.408;7.208;2023-08-01T12:00:25;21.30;60.40
4411;DHT22;2218;51.408;7.208;2023-08-01T12:03:03;21.30;60.40
4411;DHT22;2218;51.408;7.208;2023-08-01T12:05:31;21.30;60.40
4411;DHT22;2218;51.408;7.208;2023-08-01T12:08:08;21.30;60.40
4411;DHT22;2218;51.408;7.208;2023-08-01T12:10:40;21.30;60.40
4411;DHT22;2218;51.408;7.208;2023-08-01T12:13:20;21.30;60.40
4411;DHT22;2218;51.408;7.208;2023-08-01T12:15:48;21.30;60.40
4411;DHT22;2218;51.408;7.208;2023-08-01T12:18:22;21.30;60.40
4411;DHT22;2218;51.408;7.208;2023-08-01T12:20:49;21.30;60.40
4411;DHT22;2218;51.408;7.208;2023-08-01T12:23:16;21.30;60.40
4411;DHT22;2218;51.408;7.208;2023-08-01T12:25:43;21.30;60.40
4411;DHT22;2218;51.408;7.208;2023-08-01T12:28:11;21.30;60.40
4411;DHT22;2218;51.408;7.208;2023-08-01T12:30:42;21.30;60.30
4411;DHT22;2218;51.408;7.208;2023-08-01T12:33:09;21.30;60.30
4411;DHT22;2218;51.408;7.208;2023-08-01T12:35:39;21.30;60.30
4411;DHT22;2218;51.408;7.208;2023-08-01T12:38:07;21.30;60.30
4411;DHT22;2218;51.408;7.208;2023-08-01T12:40:34;21.30;60.30
4411;DHT22;2218;51.408;7.208;2023-08-01T12:43:01;21.30;60.30
4411;DHT22;2218;51.408;7.208;2023-08-01T12:45:28;21.40;60.40
4411;DHT22;2218;51.408;7.208;2023-08-01T12:47:56;21.30;60.30
4411;DHT22;2218;51.408;7.208;2023-08-01T12:50:23;21.30;60.30
4411;DHT22;2218;51.408;7.208;2023-08-01T12:52:50;21.30;60.30
4411;DHT22;2218;51.408;7.208;2023-08-01T12:55:17;21.30;60.30
4411;DHT22;2218;51.408;7.208;2023-08-01T12:57:44;21.30;60.30
4411;DHT22;2218;51.408;7.208;2023-08-01T13:00:12;21.30;60.30
4411;DHT22;2218;51.408;7.208;2023-08-01T13:02:39;21.30;60.30
4411;DHT22;2218;51.408;7.208;2023-08-01T13:05:08;21.30;60.30
4411;DHT22;2218;51.408;7.208;2023-08-01T13:07:35;21.30;60.30
4411;DHT22;2218;51.408;7.208;2023-08-01T13:10:03;21.30;60.30
4411;DHT22;2218;51.408;7.208;2023-08-01T13:12:30;21.30;60.30
4411;DHT22;2218;51.408;7.208;2023-08-01T13:14:57;21.40;60.40
4411;DHT22;2218;51.408;7.208;2023-08-01T13:17:24;21.40;60.40
4411;DHT22;2218;51.408;7.208;2023-08-01T13:19:51;21.40;60.30
4411;DHT22;2218;51.408;7.208;2023-08-01T13:22:19;21.40;60.40
4411;DHT22;2218;51.408;7.208;2023-08-01T13:24:46;21.40;60.40
4411;DHT22;2218;51.408;7.208;2023-08-01T13:27:13;21.40;60.30
4411;DHT22;2218;51.408;7.208;2023-08-01T13:29:40;21.40;60.30
4411;DHT22;2218;51.408;7.208;2023-08-01T13:32:07;21.40;60.30
4411;DHT22;2218;51.408;7.208;2023-08-01T13:34:34;21.40;60.30
4411;DHT22;2218;51.408;7.208;2023-08-01T13:37:01;21.40;60.30
4411;DHT22;2218;51.408;7.208;2023-08-01T13:39:29;21.40;60.30
4411;DHT22;2218;51.408;7.208;2023-08-01T13:41:56;21.40;60.30
4411;DHT22;2218;51.408;7.208;2023-08-01T13:44:23;21.40;60.30
4411;DHT22;2218;51.408;7.208;2023-08-01T13:46:50;21.40;60.30
4411;DHT22;2218;51.408;7.208;2023-08-01T13:49:17;21.40;60.30
4411;DHT22;2218;51.408;7.208;2023-08-01T13:51:44;21.40;60.20
4411;DHT22;2218;51.408;7.208;2023-08-01T13:54:11;21.40;60.20
4411;DHT22;2218;51.408;7.208;2023-08-01T13:56:39;21.40;60.20
4411;DHT22;2218;51.408;7.208;2023-08-01T13:59:06;21.40;60.20
4411;DHT22;2218;51.408;7.208;2023-08-01T14:01:34;21.40;60.20
4411;DHT22;2218;51.408;7.208;2023-08-01T14:04:02;21.40;60.20
4411;DHT22;2218;51.408;7.208;2023-08-01T14:06:30;21.40;60.20
4411;DHT22;2218;51.408;7.208;2023-08-01T14:08:57;21.40;60.30
4411;DHT22;2218;51.408;7.208;2023-08-01T14:11:24;21.40;60.30
4411;DHT22;2218;51.408;7.208;2023-08-01T14:13:52;21.40;60.30
4411;DHT22;2218;51.408;7.208;2023-08-01T14:16:19;21.40;60.30
4411;DHT22;2218;51.408;7.208;2023-08-01T14:18:46;21.40;60.30
4411;DHT22;2218;51.408;7.208;2023-08-01T14:21:13;21.40;60.30
4411;DHT22;2218;51.408;7.208;2023-08-01T14:23:39;21.40;60.30
4411;DHT22;2218;51.408;7.208;2023-08-01T14:26:07;21.40;60.20
4411;DHT22;2218;51.408;7.208;2023-08-01T14:28:34;21.40;60.20
4411;DHT22;2218;51.408;7.208;2023-08-01T14:31:03;21.40;60.20
4411;DHT22;2218;51.408;7.208;2023-08-01T14:33:30;21.40;60.20
4411;DHT22;2218;51.408;7.208;2023-08-01T14:35:57;21.40;60.20
4411;DHT22;2218;51.408;7.208;2023-08-01T14:38:24;21.40;60.10
4411;DHT22;2218;51.408;7.208;2023-08-01T14:40:52;21.40;60.10
4411;DHT22;2218;51.408;7.208;2023-08-01T14:43:20;21.40;60.10
4411;DHT22;2218;51.408;7.208;2023-08-01T14:45:47;21.40;60.10
4411;DHT22;2218;51.408;7.208;2023-08-01T14:48:15;21.40;60.00
4411;DHT22;2218;51.408;7.208;2023-08-01T14:50:42;21.40;60.00
4411;DHT22;2218;51.408;7.208;2023-08-01T14:53:10;21.40;60.00
4411;DHT22;2218;51.408;7.208;2023-08-01T14:55:37;21.40;60.10
4411;DHT22;2218;51.408;7.208;2023-08-01T14:58:04;21.40;60.00
4411;DHT22;2218;51.408;7.208;2023-08-01T15:00:34;21.40;60.00
4411;DHT22;2218;51.408;7.208;2023-08-01T15:03:01;21.50;60.00
4411;DHT22;2218;51.408;7.208;2023-08-01T15:05:30;21.40;59.90
4411;DHT22;2218;51.408;7.208;2023-08-01T15:07:57;21.50;60.00
4411;DHT22;2218;51.408;7.208;2023-08-01T15:10:25;21.50;60.00
4411;DHT22;2218;51.408;7.208;2023-08-01T15:12:52;21.50;60.00
4411;DHT22;2218;51.408;7.208;2023-08-01T15:15:20;21.50;60.00
4411;DHT22;2218;51.408;7.208;2023-08-01T15:17:47;21.40;59.80
4411;DHT22;2218;51.408;7.208;2023-08-01T15:20:14;21.50;59.90
4411;DHT22;2218;51.408;7.208;2023-08-01T15:22:43;21.50;59.90
4411;DHT22;2218;51.408;7.208;2023-08-01T15:25:09;21.50;59.80
4411;DHT22;2218;51.408;7.208;2023-08-01T15:27:36;21.50;59.80
4411;DHT22;2218;51.408;7.208;2023-08-01T15:30:04;21.50;59.80
4411;DHT22;2218;51.408;7.208;2023-08-01T15:32:32;21.50;59.80
4411;DHT22;2218;51.408;7.208;2023-08-01T15:35:00;21.50;59.80
4411;DHT22;2218;51.408;7.208;2023-08-01T15:37:27;21.50;59.70
4411;DHT22;2218;51.408;7.208;2023-08-01T15:39:55;21.40;59.70
4411;DHT22;2218;51.408;7.208;2023-08-01T15:42:22;21.50;59.70
4411;DHT22;2218;51.408;7.208;2023-08-01T15:44:49;21.50;59.70
4411;DHT22;2218;51.408;7.208;2023-08-01T15:47:16;21.40;59.60
4411;DHT22;2218;51.408;7.208;2023-08-01T15:49:43;21.50;59.70
4411;DHT22;2218;51.408;7.208;2023-08-01T15:52:10;21.50;59.70
4411;DHT22;2218;51.408;7.208;2023-08-01T15:54:37;21.50;59.70
4411;DHT22;2218;51.408;7.208;2023-08-01T15:57:05;21.50;59.60
4411;DHT22;2218;51.408;7.208;2023-08-01T15:59:32;21.40;59.60
4411;DHT22;2218;51.408;7.208;2023-08-01T16:01:59;21.40;59.60
4411;DHT22;2218;51.408;7.208;2023-08-01T16:04:26;21.50;59.70
4411;DHT22;2218;51.408;7.208;2023-08-01T16:06:53;21.50;59.60